createdAt,value
2018-12-30T00:01:49.776Z,46.10
2018-12-30T00:04:19.655Z,43.67
2018-12-30T00:06:49.146Z,49.60
2018-12-30T00:09:18.390Z,42.53
2018-12-30T00:11:47.711Z,40.03
2018-12-30T00:14:16.974Z,46.63
2018-12-30T00:16:46.655Z,44.40
2018-12-30T00:19:15.799Z,41.50
2018-12-30T00:21:45.034Z,38.10
2018-12-30T00:24:14.274Z,44.57
2018-12-30T00:26:43.878Z,38.20
2018-12-30T00:29:13.141Z,48.57
2018-12-30T00:31:42.345Z,47.70
2018-12-30T00:34:11.498Z,55.40
2018-12-30T00:36:40.730Z,50.30
2018-12-30T00:39:09.890Z,52.20
2018-12-30T00:41:39.076Z,59.20
2018-12-30T00:44:08.361Z,55.53
2018-12-30T00:46:37.620Z,51.77
2018-12-30T00:49:06.760Z,48.57
2018-12-30T00:51:35.912Z,52.67
2018-12-30T00:54:05.317Z,55.73
2018-12-30T00:56:34.519Z,49.17
2018-12-30T00:59:03.708Z,46.67
2018-12-30T01:01:32.843Z,51.63
2018-12-30T01:04:02.050Z,51.77
2018-12-30T01:06:31.830Z,54.27
2018-12-30T01:09:01.145Z,47.43
2018-12-30T01:11:30.335Z,52.07
2018-12-30T01:13:59.516Z,52.13
2018-12-30T01:16:28.710Z,56.17
2018-12-30T01:18:57.917Z,46.37
2018-12-30T01:21:27.138Z,48.43
2018-12-30T01:23:56.343Z,45.50
2018-12-30T01:26:25.544Z,54.70
2018-12-30T01:28:54.691Z,53.37
2018-12-30T01:31:23.837Z,48.07
2018-12-30T01:33:53.447Z,52.13
2018-12-30T01:36:22.695Z,44.93
2018-12-30T01:38:51.892Z,42.90
2018-12-30T01:41:21.143Z,48.90
2018-12-30T01:43:50.221Z,50.13
2018-12-30T01:46:19.936Z,43.43
2018-12-30T01:48:49.134Z,55.77
2018-12-30T01:51:18.666Z,51.30
2018-12-30T01:53:47.802Z,43.43
2018-12-30T01:56:17.002Z,49.97
2018-12-30T01:58:46.831Z,46.80
2018-12-30T02:01:16.019Z,52.57
2018-12-30T02:03:45.210Z,52.43
2018-12-30T02:06:14.418Z,45.77
2018-12-30T02:08:43.609Z,46.73
2018-12-30T02:11:13.324Z,45.13
2018-12-30T02:13:42.466Z,49.23
2018-12-30T02:16:11.579Z,40.87
2018-12-30T02:18:40.722Z,53.03
2018-12-30T02:21:09.798Z,49.07
2018-12-30T02:23:39.561Z,47.67
2018-12-30T02:26:08.704Z,40.03
2018-12-30T02:28:37.875Z,45.93
2018-12-30T02:31:07.038Z,45.47
2018-12-30T02:33:36.255Z,52.80
2018-12-30T02:36:05.957Z,55.77
2018-12-30T02:38:35.070Z,51.30
2018-12-30T02:41:04.282Z,50.63
2018-12-30T02:43:33.486Z,39.90
2018-12-30T02:46:02.705Z,42.47
2018-12-30T02:48:32.159Z,47.43
2018-12-30T02:51:01.409Z,43.50
2018-12-30T02:53:30.587Z,46.57
2018-12-30T02:55:59.910Z,46.93
2018-12-30T02:58:29.054Z,47.20
2018-12-30T03:00:58.205Z,40.00
2018-12-30T03:03:27.337Z,45.03
2018-12-30T03:05:56.498Z,39.33
2018-12-30T03:08:26.089Z,38.27
2018-12-30T03:10:55.296Z,37.33
2018-12-30T03:13:24.452Z,36.43
2018-12-30T03:15:53.648Z,39.20
2018-12-30T03:18:22.808Z,38.23
2018-12-30T03:20:51.889Z,39.50
2018-12-30T03:23:21.476Z,39.10
2018-12-30T03:25:50.628Z,34.87
2018-12-30T03:28:19.774Z,38.77
2018-12-30T03:30:48.914Z,40.43
2018-12-30T03:33:18.042Z,45.67
2018-12-30T03:35:47.164Z,36.07
2018-12-30T03:38:16.341Z,38.90
2018-12-30T03:40:45.532Z,34.80
2018-12-30T03:43:14.620Z,37.60
2018-12-30T03:45:43.876Z,35.30
2018-12-30T03:48:13.034Z,45.70
2018-12-30T03:50:42.243Z,35.23
2018-12-30T03:53:11.346Z,32.13
2018-12-30T03:55:40.510Z,34.47
2018-12-30T03:58:09.645Z,38.37
2018-12-30T04:00:38.806Z,30.10
2018-12-30T04:03:07.933Z,35.83
2018-12-30T04:05:37.096Z,38.13
2018-12-30T04:08:06.226Z,31.13
2018-12-30T04:10:35.396Z,32.50
2018-12-30T04:13:05.112Z,35.73
2018-12-30T04:15:34.268Z,32.87
2018-12-30T04:18:03.453Z,31.33
2018-12-30T04:20:32.578Z,41.90
2018-12-30T04:23:02.066Z,45.30
2018-12-30T04:25:31.210Z,32.63
2018-12-30T04:28:00.441Z,27.47
2018-12-30T04:30:29.566Z,30.47
2018-12-30T04:32:58.727Z,29.60
2018-12-30T04:35:27.883Z,34.13
2018-12-30T04:37:57.212Z,26.43
2018-12-30T04:40:26.326Z,33.03
2018-12-30T04:42:55.465Z,32.47
2018-12-30T04:45:24.614Z,34.57
2018-12-30T04:47:53.816Z,36.90
2018-12-30T04:50:22.997Z,36.30
2018-12-30T04:52:52.128Z,38.80
2018-12-30T04:55:21.262Z,28.37
2018-12-30T04:57:50.376Z,33.60
2018-12-30T05:00:19.614Z,34.73
2018-12-30T05:02:48.814Z,39.07
2018-12-30T05:05:17.986Z,37.23
2018-12-30T05:07:47.148Z,34.63
2018-12-30T05:10:16.270Z,32.73
2018-12-30T05:12:45.408Z,38.63
2018-12-30T05:15:14.483Z,31.53
2018-12-30T05:17:43.658Z,33.40
2018-12-30T05:20:12.813Z,38.17
2018-12-30T05:22:42.074Z,34.77
2018-12-30T05:25:11.226Z,29.30
2018-12-30T05:27:40.358Z,28.83
2018-12-30T05:30:09.503Z,32.47
2018-12-30T05:32:38.655Z,30.63
2018-12-30T05:35:07.796Z,25.50
2018-12-30T05:37:36.942Z,32.90
2018-12-30T05:40:06.090Z,30.17
2018-12-30T05:42:35.237Z,30.47
2018-12-30T05:45:04.579Z,26.13
2018-12-30T05:47:33.727Z,32.00
2018-12-30T05:50:02.906Z,25.30
2018-12-30T05:52:31.981Z,32.43
2018-12-30T05:55:01.128Z,27.53
2018-12-30T05:57:30.226Z,29.17
2018-12-30T05:59:59.367Z,29.10
2018-12-30T06:02:28.505Z,31.53
2018-12-30T06:04:57.659Z,25.90
2018-12-30T06:07:26.787Z,27.70
2018-12-30T06:09:56.259Z,31.03
2018-12-30T06:12:25.398Z,32.03
2018-12-30T06:14:54.583Z,27.07
2018-12-30T06:17:23.705Z,30.53
2018-12-30T06:19:52.839Z,31.63
2018-12-30T06:22:21.989Z,32.33
2018-12-30T06:24:51.093Z,32.00
2018-12-30T06:27:20.265Z,34.83
2018-12-30T06:29:49.363Z,28.53
2018-12-30T06:32:18.514Z,29.67
2018-12-30T06:34:47.640Z,31.63
2018-12-30T06:37:16.783Z,33.07
2018-12-30T06:39:45.945Z,26.00
2018-12-30T06:42:15.090Z,23.60
2018-12-30T06:44:44.215Z,31.00
2018-12-30T06:47:13.339Z,25.40
2018-12-30T06:49:42.661Z,27.43
2018-12-30T06:52:11.775Z,23.37
2018-12-30T06:54:40.927Z,25.40
2018-12-30T06:57:10.067Z,23.70
2018-12-30T06:59:39.225Z,25.27
2018-12-30T07:02:08.336Z,24.13
2018-12-30T07:04:37.485Z,25.17
2018-12-30T07:07:06.615Z,26.57
2018-12-30T07:09:35.839Z,31.13
2018-12-30T07:12:05.000Z,24.93
2018-12-30T07:14:34.165Z,29.43
2018-12-30T07:17:03.295Z,33.47
2018-12-30T07:19:32.438Z,25.33
2018-12-30T07:22:01.594Z,32.60
2018-12-30T07:24:30.775Z,31.07
2018-12-30T07:26:59.965Z,29.93
2018-12-30T07:29:29.084Z,24.63
2018-12-30T07:31:58.301Z,26.10
2018-12-30T07:34:27.414Z,24.97
2018-12-30T07:36:56.588Z,27.90
2018-12-30T07:39:25.788Z,31.93
2018-12-30T07:41:54.974Z,36.27
2018-12-30T07:44:24.141Z,38.47
2018-12-30T07:46:53.277Z,32.63
2018-12-30T07:49:22.437Z,34.87
2018-12-30T07:51:51.563Z,37.47
2018-12-30T07:54:20.713Z,34.43
2018-12-30T07:56:49.841Z,38.97
2018-12-30T07:59:18.988Z,36.27
2018-12-30T08:01:48.113Z,28.23
2018-12-30T08:04:17.367Z,30.63
2018-12-30T08:06:46.502Z,32.70
2018-12-30T08:09:15.881Z,32.20
2018-12-30T08:11:45.018Z,39.43
2018-12-30T08:14:14.181Z,35.03
2018-12-30T08:16:43.340Z,35.37
2018-12-30T08:19:12.473Z,31.53
2018-12-30T08:21:41.701Z,42.90
2018-12-30T08:24:10.833Z,36.37
2018-12-30T08:26:39.975Z,37.40
2018-12-30T08:29:09.098Z,32.40
2018-12-30T08:31:38.350Z,40.13
2018-12-30T08:34:07.527Z,35.73
2018-12-30T08:36:36.740Z,42.67
2018-12-30T08:39:07.955Z,27.70
2018-12-30T08:41:37.171Z,49.60
2018-12-30T08:44:06.284Z,32.50
2018-12-30T08:46:35.490Z,37.40
2018-12-30T08:49:04.605Z,28.27
2018-12-30T08:51:33.731Z,38.00
2018-12-30T08:54:02.951Z,42.03
2018-12-30T08:56:32.111Z,40.70
2018-12-30T08:59:01.268Z,38.27
2018-12-30T09:01:30.392Z,36.33
2018-12-30T09:03:59.620Z,41.37
2018-12-30T09:06:28.743Z,32.00
2018-12-30T09:08:58.176Z,34.70
2018-12-30T09:11:27.381Z,30.03
2018-12-30T09:13:56.534Z,28.33
2018-12-30T09:16:25.674Z,36.27
2018-12-30T09:18:54.911Z,40.60
2018-12-30T09:21:24.176Z,41.10
2018-12-30T09:23:53.292Z,35.40
2018-12-30T09:26:22.427Z,36.50
2018-12-30T09:28:51.655Z,45.50
2018-12-30T09:31:20.791Z,36.77
2018-12-30T09:33:49.908Z,32.33
2018-12-30T09:36:19.031Z,34.73
2018-12-30T09:38:48.159Z,40.80
2018-12-30T09:41:17.357Z,36.40
2018-12-30T09:43:46.521Z,31.37
2018-12-30T09:46:15.938Z,35.80
2018-12-30T09:48:45.067Z,37.83
2018-12-30T09:51:14.242Z,35.00
2018-12-30T09:53:45.313Z,36.80
2018-12-30T09:56:14.374Z,39.80
2018-12-30T09:58:43.909Z,31.93
2018-12-30T10:01:13.056Z,31.63
2018-12-30T10:03:42.315Z,34.40
2018-12-30T10:06:11.543Z,30.50
2018-12-30T10:08:40.721Z,28.27
2018-12-30T10:11:09.863Z,34.20
2018-12-30T10:13:39.055Z,32.77
2018-12-30T10:16:08.203Z,28.63
2018-12-30T10:18:37.390Z,26.30
2018-12-30T10:21:25.608Z,26.67
2018-12-30T10:23:54.816Z,28.33
2018-12-30T10:26:23.972Z,29.10
2018-12-30T10:28:53.136Z,34.00
2018-12-30T10:31:22.316Z,24.50
2018-12-30T10:33:51.454Z,28.23
2018-12-30T10:36:20.629Z,28.93
2018-12-30T10:38:50.307Z,27.30
2018-12-30T10:41:19.496Z,21.90
2018-12-30T10:43:48.789Z,22.63
2018-12-30T10:46:18.248Z,32.73
2018-12-30T10:48:47.458Z,24.60
2018-12-30T10:51:16.610Z,21.63
2018-12-30T10:53:45.836Z,25.03
2018-12-30T10:56:15.030Z,23.37
2018-12-30T10:58:44.173Z,28.00
2018-12-30T11:01:13.312Z,26.03
2018-12-30T11:03:42.574Z,23.17
2018-12-30T11:06:11.706Z,21.40
2018-12-30T11:08:41.014Z,30.90
2018-12-30T11:11:10.242Z,23.07
2018-12-30T11:13:39.455Z,22.80
2018-12-30T11:16:08.682Z,24.37
2018-12-30T11:18:37.900Z,26.20
2018-12-30T11:21:07.109Z,29.23
2018-12-30T11:23:36.321Z,17.17
2018-12-30T11:26:05.458Z,20.80
2018-12-30T11:28:34.626Z,25.13
2018-12-30T11:31:04.727Z,25.30
2018-12-30T11:33:33.869Z,22.90
2018-12-30T11:36:03.043Z,27.83
2018-12-30T11:38:32.188Z,23.30
2018-12-30T11:41:01.443Z,18.43
2018-12-30T11:43:30.665Z,33.37
2018-12-30T11:45:59.848Z,19.40
2018-12-30T11:48:29.056Z,21.57
2018-12-30T11:50:58.268Z,25.13
2018-12-30T11:53:27.410Z,27.23
2018-12-30T11:55:56.576Z,30.53
2018-12-30T11:58:25.813Z,26.23
2018-12-30T12:00:55.078Z,65.23
2018-12-30T12:03:24.438Z,31.60
2018-12-30T12:05:53.651Z,37.73
2018-12-30T12:08:22.781Z,87.20
2018-12-30T12:10:51.929Z,203.17
2018-12-30T12:13:21.109Z,180.13
2018-12-30T12:15:50.265Z,81.47
2018-12-30T12:18:19.443Z,300.23
2018-12-30T12:20:48.591Z,286.73
2018-12-30T12:23:18.068Z,100.40
2018-12-30T12:25:47.218Z,257.00
2018-12-30T12:28:16.756Z,304.53
2018-12-30T12:30:45.910Z,256.33
2018-12-30T12:33:15.147Z,113.17
2018-12-30T12:35:44.386Z,144.20
2018-12-30T12:38:13.653Z,130.07
2018-12-30T12:40:42.823Z,26.90
2018-12-30T12:43:11.991Z,27.73
2018-12-30T12:45:41.205Z,25.13
2018-12-30T12:48:10.341Z,30.90
2018-12-30T12:50:39.502Z,29.57
2018-12-30T12:53:08.737Z,26.03
2018-12-30T12:55:37.903Z,25.57
2018-12-30T12:58:07.127Z,25.77
2018-12-30T13:00:36.363Z,22.77
2018-12-30T13:03:05.522Z,27.17
2018-12-30T13:05:34.703Z,26.40
2018-12-30T13:08:03.879Z,29.53
2018-12-30T13:10:33.133Z,23.33
2018-12-30T13:13:02.690Z,24.97
2018-12-30T13:15:31.846Z,27.80
2018-12-30T13:18:01.011Z,27.37
2018-12-30T13:20:30.285Z,21.17
2018-12-30T13:22:59.428Z,26.73
2018-12-30T13:25:28.582Z,30.03
2018-12-30T13:27:57.836Z,29.50
2018-12-30T13:30:26.968Z,36.43
2018-12-30T13:32:56.246Z,24.70
2018-12-30T13:35:25.440Z,31.37
2018-12-30T13:37:54.594Z,34.67
2018-12-30T13:40:23.893Z,20.73
2018-12-30T13:42:53.025Z,23.80
2018-12-30T13:45:22.205Z,26.80
2018-12-30T13:47:51.316Z,26.53
2018-12-30T13:50:20.522Z,22.53
2018-12-30T13:52:49.622Z,20.10
2018-12-30T13:55:18.800Z,23.67
2018-12-30T13:57:47.932Z,30.90
2018-12-30T14:00:17.093Z,27.03
2018-12-30T14:02:46.269Z,18.23
2018-12-30T14:05:15.542Z,19.40
2018-12-30T14:07:44.711Z,21.17
2018-12-30T14:10:13.982Z,20.07
2018-12-30T14:12:43.306Z,23.10
2018-12-30T14:15:12.451Z,13.17
2018-12-30T14:17:41.638Z,17.60
2018-12-30T14:20:10.868Z,20.90
2018-12-30T14:22:40.048Z,15.17
2018-12-30T14:25:09.176Z,17.67
2018-12-30T14:27:38.328Z,21.97
2018-12-30T14:30:08.770Z,16.37
2018-12-30T14:32:37.972Z,15.93
2018-12-30T14:35:07.198Z,36.80
2018-12-30T14:37:36.370Z,24.60
2018-12-30T14:40:05.679Z,18.37
2018-12-30T14:42:34.864Z,15.60
2018-12-30T14:45:04.485Z,15.43
2018-12-30T14:47:33.698Z,19.53
2018-12-30T14:50:02.831Z,23.63
2018-12-30T14:52:32.030Z,14.57
2018-12-30T14:55:03.720Z,16.37
2018-12-30T14:57:32.164Z,10.97
2018-12-30T15:00:01.310Z,15.37
2018-12-30T15:02:30.472Z,15.37
2018-12-30T15:04:59.662Z,12.97
2018-12-30T15:07:28.893Z,19.30
2018-12-30T15:09:58.002Z,19.07
2018-12-30T15:12:27.245Z,21.83
2018-12-30T15:14:56.400Z,21.43
2018-12-30T15:17:25.567Z,13.10
2018-12-30T15:19:54.713Z,13.53
2018-12-30T15:22:23.890Z,19.67
2018-12-30T15:24:53.062Z,15.60
2018-12-30T15:27:22.474Z,14.17
2018-12-30T15:29:51.621Z,17.57
2018-12-30T15:32:20.798Z,15.00
2018-12-30T15:34:49.950Z,13.97
2018-12-30T15:37:19.231Z,17.00
2018-12-30T15:39:48.386Z,18.10
2018-12-30T15:42:18.985Z,19.10
2018-12-30T15:44:48.393Z,19.17
2018-12-30T15:47:17.618Z,30.37
2018-12-30T15:49:46.758Z,15.37
2018-12-30T15:52:16.011Z,17.47
2018-12-30T15:54:45.126Z,17.97
2018-12-30T15:57:14.285Z,15.43
2018-12-30T15:59:43.437Z,18.23
2018-12-30T16:02:12.674Z,14.33
2018-12-30T16:04:41.826Z,43.20
2018-12-30T16:07:11.011Z,17.27
2018-12-30T16:09:40.160Z,20.63
2018-12-30T16:12:09.397Z,21.60
2018-12-30T16:14:38.540Z,25.10
2018-12-30T16:17:07.745Z,22.50
2018-12-30T16:19:36.880Z,146.23
2018-12-30T16:22:06.030Z,114.23
2018-12-30T16:24:35.277Z,26.40
2018-12-30T16:27:04.605Z,22.43
2018-12-30T16:29:33.815Z,23.37
2018-12-30T16:32:02.943Z,29.93
2018-12-30T16:34:32.631Z,19.30
2018-12-30T16:37:01.887Z,25.60
2018-12-30T16:39:31.017Z,21.80
2018-12-30T16:42:00.147Z,22.50
2018-12-30T16:44:29.285Z,56.77
2018-12-30T16:46:58.409Z,31.77
2018-12-30T16:49:27.567Z,25.53
2018-12-30T16:51:57.363Z,24.03
2018-12-30T16:54:26.541Z,25.43
2018-12-30T16:56:55.943Z,19.83
2018-12-30T16:59:25.141Z,28.00
2018-12-30T17:01:54.293Z,18.43
2018-12-30T17:04:23.479Z,25.97
2018-12-30T17:06:52.636Z,22.37
2018-12-30T17:09:21.834Z,22.70
2018-12-30T17:11:50.946Z,19.10
2018-12-30T17:14:20.134Z,25.63
2018-12-30T17:16:49.283Z,26.93
2018-12-30T17:19:18.448Z,18.43
2018-12-30T17:21:47.611Z,22.43
2018-12-30T17:24:16.785Z,26.27
2018-12-30T17:26:45.964Z,30.63
2018-12-30T17:29:15.092Z,24.47
2018-12-30T17:31:44.248Z,36.13
2018-12-30T17:34:13.552Z,30.00
2018-12-30T17:36:42.706Z,25.90
2018-12-30T17:39:11.939Z,26.67
2018-12-30T17:41:41.118Z,27.43
2018-12-30T17:44:10.302Z,26.67
2018-12-30T17:46:39.468Z,24.37
2018-12-30T17:49:08.704Z,27.32
2018-12-30T17:51:37.889Z,31.52
2018-12-30T17:54:07.124Z,28.67
2018-12-30T17:56:36.331Z,29.13
2018-12-30T17:59:05.497Z,41.77
2018-12-30T18:01:34.736Z,28.37
2018-12-30T18:04:03.932Z,23.30
2018-12-30T18:06:33.212Z,36.60
2018-12-30T18:09:02.421Z,24.70
2018-12-30T18:11:31.660Z,33.70
2018-12-30T18:14:00.914Z,32.73
2018-12-30T18:16:30.168Z,41.73
2018-12-30T18:18:59.367Z,26.13
2018-12-30T18:21:28.527Z,36.33
2018-12-30T18:23:57.776Z,39.77
2018-12-30T18:26:26.942Z,37.73
2018-12-30T18:28:56.303Z,28.47
2018-12-30T18:31:25.440Z,37.43
2018-12-30T18:33:54.624Z,37.70
2018-12-30T18:36:23.744Z,38.63
2018-12-30T18:38:52.996Z,37.13
2018-12-30T18:41:22.140Z,36.67
2018-12-30T18:43:51.290Z,38.07
2018-12-30T18:46:20.606Z,42.33
2018-12-30T18:48:49.928Z,42.90
2018-12-30T18:51:19.135Z,48.53
2018-12-30T18:53:48.316Z,46.60
2018-12-30T18:56:17.534Z,50.53
2018-12-30T18:58:46.797Z,52.37
2018-12-30T19:01:15.974Z,54.50
2018-12-30T19:03:45.156Z,52.53
2018-12-30T19:06:14.462Z,60.80
2018-12-30T19:08:43.719Z,67.70
2018-12-30T19:11:12.873Z,56.93
2018-12-30T19:13:42.054Z,57.30
2018-12-30T19:16:11.191Z,59.20
2018-12-30T19:18:40.497Z,59.80
2018-12-30T19:21:09.641Z,63.67
2018-12-30T19:23:38.869Z,66.73
2018-12-30T19:26:14.225Z,64.47
2018-12-30T19:28:39.017Z,76.97
2018-12-30T19:31:08.262Z,72.50
2018-12-30T19:33:37.511Z,63.27
2018-12-30T19:36:06.797Z,63.33
2018-12-30T19:38:35.967Z,65.97
2018-12-30T19:41:05.131Z,64.40
2018-12-30T19:43:34.310Z,65.93
2018-12-30T19:46:04.111Z,60.27
2018-12-30T19:48:33.490Z,65.37
2018-12-30T19:51:02.660Z,64.87
2018-12-30T19:53:31.903Z,56.63
2018-12-30T19:56:01.069Z,65.83
2018-12-30T19:58:30.296Z,58.80
2018-12-30T20:00:59.445Z,56.67
2018-12-30T20:03:28.662Z,65.90
2018-12-30T20:05:57.859Z,52.97
2018-12-30T20:08:27.086Z,58.40
2018-12-30T20:10:56.235Z,53.67
2018-12-30T20:13:25.405Z,54.23
2018-12-30T20:15:54.523Z,61.13
2018-12-30T20:18:23.821Z,52.33
2018-12-30T20:20:52.964Z,54.77
2018-12-30T20:23:22.217Z,49.30
2018-12-30T20:25:51.483Z,51.13
2018-12-30T20:28:20.659Z,46.60
2018-12-30T20:30:49.957Z,44.47
2018-12-30T20:33:19.283Z,54.43
2018-12-30T20:35:48.559Z,43.60
2018-12-30T20:38:17.736Z,45.30
2018-12-30T20:40:47.014Z,43.23
2018-12-30T20:43:16.294Z,43.20
2018-12-30T20:45:45.494Z,46.87
2018-12-30T20:48:14.797Z,41.83
2018-12-30T20:50:43.979Z,34.70
2018-12-30T20:53:13.229Z,42.83
2018-12-30T20:55:42.604Z,45.63
2018-12-30T20:58:11.860Z,36.77
2018-12-30T21:00:41.208Z,40.30
2018-12-30T21:03:10.593Z,41.53
2018-12-30T21:05:39.869Z,33.67
2018-12-30T21:08:09.108Z,36.27
2018-12-30T21:10:38.514Z,40.50
2018-12-30T21:13:07.728Z,44.30
2018-12-30T21:15:36.949Z,39.57
2018-12-30T21:18:06.160Z,43.67
2018-12-30T21:20:35.446Z,69.87
2018-12-30T21:23:04.681Z,44.73
2018-12-30T21:25:34.024Z,45.17
2018-12-30T21:28:03.271Z,47.07
2018-12-30T21:30:32.653Z,42.57
2018-12-30T21:33:01.916Z,50.53
2018-12-30T21:35:31.265Z,48.43
2018-12-30T21:38:00.549Z,51.57
2018-12-30T21:40:29.769Z,53.13
2018-12-30T21:42:58.931Z,50.53
2018-12-30T21:45:28.160Z,56.03
2018-12-30T21:47:57.313Z,51.87
2018-12-30T21:50:26.535Z,50.70
2018-12-30T21:52:55.679Z,52.20
2018-12-30T21:55:24.925Z,58.40
2018-12-30T21:57:54.087Z,56.90
2018-12-30T22:00:23.249Z,53.37
2018-12-30T22:02:52.403Z,59.43
2018-12-30T22:05:21.611Z,62.50
2018-12-30T22:07:50.765Z,56.13
2018-12-30T22:10:20.002Z,63.20
2018-12-30T22:12:49.151Z,59.83
2018-12-30T22:15:18.478Z,57.07
2018-12-30T22:17:47.726Z,64.87
2018-12-30T22:20:16.922Z,62.57
2018-12-30T22:22:46.091Z,65.30
2018-12-30T22:25:15.324Z,81.73
2018-12-30T22:27:44.465Z,66.57
2018-12-30T22:30:13.633Z,66.30
2018-12-30T22:32:42.822Z,64.60
2018-12-30T22:35:11.999Z,65.13
2018-12-30T22:37:41.198Z,69.50
2018-12-30T22:40:10.357Z,78.93
2018-12-30T22:42:39.502Z,85.73
2018-12-30T22:45:08.659Z,97.37
2018-12-30T22:47:37.836Z,83.63
2018-12-30T22:50:07.125Z,75.30
2018-12-30T22:52:36.243Z,93.10
2018-12-30T22:55:05.736Z,75.93
2018-12-30T22:57:35.006Z,89.17
2018-12-30T23:00:06.687Z,90.53
2018-12-30T23:02:35.910Z,102.60
2018-12-30T23:05:05.147Z,95.10
2018-12-30T23:07:34.281Z,111.17
2018-12-30T23:10:03.436Z,93.80
2018-12-30T23:12:32.593Z,76.57
2018-12-30T23:15:01.749Z,96.60
2018-12-30T23:17:30.999Z,137.77
2018-12-30T23:20:00.261Z,95.90
2018-12-30T23:22:29.508Z,101.97
2018-12-30T23:24:58.655Z,114.33
2018-12-30T23:27:27.794Z,135.23
2018-12-30T23:29:56.971Z,114.33
2018-12-30T23:32:26.088Z,246.80
2018-12-30T23:34:55.667Z,204.73
2018-12-30T23:37:24.833Z,131.83
2018-12-30T23:39:54.212Z,109.23
2018-12-30T23:42:23.652Z,114.23
2018-12-30T23:44:52.840Z,113.80
2018-12-30T23:47:21.970Z,105.93
2018-12-30T23:49:51.204Z,86.77
2018-12-30T23:52:20.344Z,98.27
2018-12-30T23:54:49.545Z,77.43
2018-12-30T23:57:18.723Z,65.70
2018-12-30T23:59:47.884Z,80.83
